sensor_id;sensor_type;location;lat;lon;timestamp;P1;durP1;ratioP1;P2;durP2;ratioP2
10537;SDS011;5317;49.048;8.468;2024-03-22T00:02:15;6.37;;;4.37;;
10537;SDS011;5317;49.048;8.468;2024-03-22T00:04:41;5.30;;;4.43;;
10537;SDS011;5317;49.048;8.468;2024-03-22T00:07:08;5.43;;;4.40;;
10537;SDS011;5317;49.048;8.468;2024-03-22T00:09:34;7.00;;;4.63;;
10537;SDS011;5317;49.048;8.468;2024-03-22T00:12:00;9.20;;;5.07;;
10537;SDS011;5317;49.048;8.468;2024-03-22T00:14:26;7.63;;;4.43;;
10537;SDS011;5317;49.048;8.468;2024-03-22T00:16:53;6.80;;;5.23;;
10537;SDS011;5317;49.048;8.468;2024-03-22T00:19:20;6.93;;;5.33;;
10537;SDS011;5317;49.048;8.468;2024-03-22T00:21:47;9.73;;;5.27;;
10537;SDS011;5317;49.048;8.468;2024-03-22T00:24:13;7.20;;;4.90;;
10537;SDS011;5317;49.048;8.468;2024-03-22T00:26:40;8.50;;;5.30;;
10537;SDS011;5317;49.048;8.468;2024-03-22T00:29:05;6.50;;;5.03;;
10537;SDS011;5317;49.048;8.468;2024-03-22T00:31:32;7.10;;;5.07;;
10537;SDS011;5317;49.048;8.468;2024-03-22T00:33:58;7.60;;;5.23;;
10537;SDS011;5317;49.048;8.468;2024-03-22T00:36:26;6.60;;;5.13;;
10537;SDS011;5317;49.048;8.468;2024-03-22T00:38:52;5.57;;;4.97;;
10537;SDS011;5317;49.048;8.468;2024-03-22T00:41:19;6.90;;;4.67;;
10537;SDS011;5317;49.048;8.468;2024-03-22T00:43:45;6.33;;;5.20;;
10537;SDS011;5317;49.048;8.468;2024-03-22T00:46:11;6.70;;;5.97;;
10537;SDS011;5317;49.048;8.468;2024-03-22T00:48:37;6.43;;;5.10;;
10537;SDS011;5317;49.048;8.468;2024-03-22T00:51:04;7.30;;;5.00;;
10537;SDS011;5317;49.048;8.468;2024-03-22T00:53:31;8.07;;;5.40;;
10537;SDS011;5317;49.048;8.468;2024-03-22T00:55:58;9.30;;;6.70;;
10537;SDS011;5317;49.048;8.468;2024-03-22T00:58:25;14.93;;;10.67;;
10537;SDS011;5317;49.048;8.468;2024-03-22T01:00:54;9.13;;;7.43;;
10537;SDS011;5317;49.048;8.468;2024-03-22T01:03:20;7.17;;;5.23;;
10537;SDS011;5317;49.048;8.468;2024-03-22T01:05:47;8.23;;;4.97;;
10537;SDS011;5317;49.048;8.468;2024-03-22T01:08:13;8.67;;;5.23;;
10537;SDS011;5317;49.048;8.468;2024-03-22T01:10:41;6.17;;;5.07;;
10537;SDS011;5317;49.048;8.468;2024-03-22T01:13:08;7.57;;;5.10;;
10537;SDS011;5317;49.048;8.468;2024-03-22T01:15:34;6.20;;;5.03;;
10537;SDS011;5317;49.048;8.468;2024-03-22T01:18:00;6.07;;;4.60;;
10537;SDS011;5317;49.048;8.468;2024-03-22T01:20:27;7.30;;;4.93;;
10537;SDS011;5317;49.048;8.468;2024-03-22T01:22:53;8.00;;;5.43;;
10537;SDS011;5317;49.048;8.468;2024-03-22T01:25:20;7.27;;;6.20;;
10537;SDS011;5317;49.048;8.468;2024-03-22T01:27:47;7.83;;;5.47;;
10537;SDS011;5317;49.048;8.468;2024-03-22T01:30:14;7.93;;;5.43;;
10537;SDS011;5317;49.048;8.468;2024-03-22T01:32:40;6.27;;;5.17;;
10537;SDS011;5317;49.048;8.468;2024-03-22T01:35:07;5.90;;;5.30;;
10537;SDS011;5317;49.048;8.468;2024-03-22T01:37:33;6.33;;;5.30;;
10537;SDS011;5317;49.048;8.468;2024-03-22T01:40:00;6.20;;;5.60;;
10537;SDS011;5317;49.048;8.468;2024-03-22T01:42:27;9.17;;;5.67;;
10537;SDS011;5317;49.048;8.468;2024-03-22T01:44:55;5.77;;;4.90;;
10537;SDS011;5317;49.048;8.468;2024-03-22T01:47:21;5.60;;;5.10;;
10537;SDS011;5317;49.048;8.468;2024-03-22T01:49:48;7.93;;;5.40;;
10537;SDS011;5317;49.048;8.468;2024-03-22T01:52:15;6.07;;;5.47;;
10537;SDS011;5317;49.048;8.468;2024-03-22T01:54:42;6.77;;;5.10;;
10537;SDS011;5317;49.048;8.468;2024-03-22T01:57:08;6.43;;;5.70;;
10537;SDS011;5317;49.048;8.468;2024-03-22T01:59:35;8.27;;;5.80;;
10537;SDS011;5317;49.048;8.468;2024-03-22T02:02:03;6.80;;;5.93;;
10537;SDS011;5317;49.048;8.468;2024-03-22T02:04:30;7.87;;;5.50;;
10537;SDS011;5317;49.048;8.468;2024-03-22T02:06:56;6.63;;;5.00;;
10537;SDS011;5317;49.048;8.468;2024-03-22T02:09:23;6.50;;;5.63;;
10537;SDS011;5317;49.048;8.468;2024-03-22T02:11:49;6.40;;;5.20;;
10537;SDS011;5317;49.048;8.468;2024-03-22T02:14:16;9.30;;;5.70;;
10537;SDS011;5317;49.048;8.468;2024-03-22T02:16:41;8.97;;;5.53;;
10537;SDS011;5317;49.048;8.468;2024-03-22T02:19:11;6.80;;;6.10;;
10537;SDS011;5317;49.048;8.468;2024-03-22T02:21:37;8.40;;;5.83;;
10537;SDS011;5317;49.048;8.468;2024-03-22T02:24:05;5.87;;;5.27;;
10537;SDS011;5317;49.048;8.468;2024-03-22T02:26:31;9.30;;;6.40;;
10537;SDS011;5317;49.048;8.468;2024-03-22T02:28:58;6.93;;;6.23;;
10537;SDS011;5317;49.048;8.468;2024-03-22T02:31:24;10.90;;;6.50;;
10537;SDS011;5317;49.048;8.468;2024-03-22T02:33:52;8.30;;;6.50;;
10537;SDS011;5317;49.048;8.468;2024-03-22T02:36:18;8.67;;;6.10;;
10537;SDS011;5317;49.048;8.468;2024-03-22T02:38:44;11.13;;;6.00;;
10537;SDS011;5317;49.048;8.468;2024-03-22T02:41:12;7.63;;;6.33;;
10537;SDS011;5317;49.048;8.468;2024-03-22T02:43:38;9.00;;;6.60;;
10537;SDS011;5317;49.048;8.468;2024-03-22T02:46:05;7.63;;;6.43;;
10537;SDS011;5317;49.048;8.468;2024-03-22T02:48:32;9.23;;;6.40;;
10537;SDS011;5317;49.048;8.468;2024-03-22T02:50:58;6.67;;;6.03;;
10537;SDS011;5317;49.048;8.468;2024-03-22T02:53:25;6.60;;;6.00;;
10537;SDS011;5317;49.048;8.468;2024-03-22T02:55:51;7.40;;;6.23;;
10537;SDS011;5317;49.048;8.468;2024-03-22T02:58:19;6.93;;;6.13;;
10537;SDS011;5317;49.048;8.468;2024-03-22T03:00:46;7.40;;;6.33;;
10537;SDS011;5317;49.048;8.468;2024-03-22T03:03:13;8.30;;;6.40;;
10537;SDS011;5317;49.048;8.468;2024-03-22T03:05:38;6.30;;;5.70;;
10537;SDS011;5317;49.048;8.468;2024-03-22T03:08:06;6.67;;;5.97;;
10537;SDS011;5317;49.048;8.468;2024-03-22T03:10:32;9.60;;;5.70;;
10537;SDS011;5317;49.048;8.468;2024-03-22T03:12:59;6.63;;;5.43;;
10537;SDS011;5317;49.048;8.468;2024-03-22T03:15:26;9.90;;;5.77;;
10537;SDS011;5317;49.048;8.468;2024-03-22T03:17:53;7.03;;;5.57;;
10537;SDS011;5317;49.048;8.468;2024-03-22T03:20:19;7.50;;;5.67;;
10537;SDS011;5317;49.048;8.468;2024-03-22T03:22:45;8.83;;;5.93;;
10537;SDS011;5317;49.048;8.468;2024-03-22T03:25:11;8.73;;;6.20;;
10537;SDS011;5317;49.048;8.468;2024-03-22T03:27:38;6.60;;;5.90;;
10537;SDS011;5317;49.048;8.468;2024-03-22T03:30:04;8.60;;;6.03;;
10537;SDS011;5317;49.048;8.468;2024-03-22T03:32:33;8.77;;;5.53;;
10537;SDS011;5317;49.048;8.468;2024-03-22T03:34:59;6.50;;;5.57;;
10537;SDS011;5317;49.048;8.468;2024-03-22T03:37:26;8.53;;;6.00;;
10537;SDS011;5317;49.048;8.468;2024-03-22T03:39:53;6.80;;;5.40;;
10537;SDS011;5317;49.048;8.468;2024-03-22T03:42:20;6.50;;;5.90;;
10537;SDS011;5317;49.048;8.468;2024-03-22T03:44:45;8.03;;;6.73;;
10537;SDS011;5317;49.048;8.468;2024-03-22T03:47:12;8.07;;;5.90;;
10537;SDS011;5317;49.048;8.468;2024-03-22T03:49:40;7.43;;;6.13;;
10537;SDS011;5317;49.048;8.468;2024-03-22T03:52:06;7.03;;;6.30;;
10537;SDS011;5317;49.048;8.468;2024-03-22T03:54:32;8.47;;;6.20;;
10537;SDS011;5317;49.048;8.468;2024-03-22T03:56:59;7.43;;;6.47;;
10537;SDS011;5317;49.048;8.468;2024-03-22T03:59:25;9.17;;;6.27;;
10537;SDS011;5317;49.048;8.468;2024-03-22T04:01:52;7.00;;;6.40;;
10537;SDS011;5317;49.048;8.468;2024-03-22T04:04:17;8.60;;;6.20;;
10537;SDS011;5317;49.048;8.468;2024-03-22T04:06:45;6.40;;;5.80;;
10537;SDS011;5317;49.048;8.468;2024-03-22T04:09:11;8.80;;;6.33;;
10537;SDS011;5317;49.048;8.468;2024-03-22T04:11:38;6.97;;;5.67;;
10537;SDS011;5317;49.048;8.468;2024-03-22T04:14:04;6.47;;;5.90;;
10537;SDS011;5317;49.048;8.468;2024-03-22T04:16:31;7.17;;;5.43;;
10537;SDS011;5317;49.048;8.468;2024-03-22T04:18:57;7.97;;;5.90;;
10537;SDS011;5317;49.048;8.468;2024-03-22T04:21:24;6.93;;;5.93;;
10537;SDS011;5317;49.048;8.468;2024-03-22T04:23:51;6.30;;;5.23;;
10537;SDS011;5317;49.048;8.468;2024-03-22T04:26:18;8.43;;;5.50;;
10537;SDS011;5317;49.048;8.468;2024-03-22T04:28:48;6.70;;;6.00;;
10537;SDS011;5317;49.048;8.468;2024-03-22T04:31:15;6.00;;;5.40;;
10537;SDS011;5317;49.048;8.468;2024-03-22T04:33:41;8.37;;;5.90;;
10537;SDS011;5317;49.048;8.468;2024-03-22T04:36:08;8.97;;;6.07;;
10537;SDS011;5317;49.048;8.468;2024-03-22T04:38:34;6.47;;;5.83;;
10537;SDS011;5317;49.048;8.468;2024-03-22T04:41:03;8.80;;;6.20;;
10537;SDS011;5317;49.048;8.468;2024-03-22T04:43:30;6.73;;;5.67;;
10537;SDS011;5317;49.048;8.468;2024-03-22T04:45:57;7.53;;;5.60;;
10537;SDS011;5317;49.048;8.468;2024-03-22T04:48:24;6.37;;;5.47;;
10537;SDS011;5317;49.048;8.468;2024-03-22T04:50:50;6.80;;;5.83;;
10537;SDS011;5317;49.048;8.468;2024-03-22T04:53:19;7.73;;;6.03;;
10537;SDS011;5317;49.048;8.468;2024-03-22T04:55:46;8.63;;;5.57;;
10537;SDS011;5317;49.048;8.468;2024-03-22T04:58:15;6.43;;;5.50;;
10537;SDS011;5317;49.048;8.468;2024-03-22T05:00:42;7.03;;;6.30;;
10537;SDS011;5317;49.048;8.468;2024-03-22T05:03:09;7.83;;;6.17;;
10537;SDS011;5317;49.048;8.468;2024-03-22T05:05:35;7.33;;;5.33;;
10537;SDS011;5317;49.048;8.468;2024-03-22T05:08:02;6.30;;;5.63;;
10537;SDS011;5317;49.048;8.468;2024-03-22T05:10:29;6.00;;;5.40;;
10537;SDS011;5317;49.048;8.468;2024-03-22T05:12:56;7.07;;;5.60;;
10537;SDS011;5317;49.048;8.468;2024-03-22T05:15:23;6.83;;;5.70;;
10537;SDS011;5317;49.048;8.468;2024-03-22T05:17:51;8.30;;;5.30;;
10537;SDS011;5317;49.048;8.468;2024-03-22T05:20:18;6.97;;;5.20;;
10537;SDS011;5317;49.048;8.468;2024-03-22T05:22:44;6.27;;;5.63;;
10537;SDS011;5317;49.048;8.468;2024-03-22T05:25:10;8.13;;;4.93;;
10537;SDS011;5317;49.048;8.468;2024-03-22T05:27:37;6.90;;;5.00;;
10537;SDS011;5317;49.048;8.468;2024-03-22T05:30:03;7.00;;;5.10;;
10537;SDS011;5317;49.048;8.468;2024-03-22T05:32:32;7.97;;;5.40;;
10537;SDS011;5317;49.048;8.468;2024-03-22T05:34:58;7.77;;;5.47;;
10537;SDS011;5317;49.048;8.468;2024-03-22T05:37:25;6.23;;;4.40;;
10537;SDS011;5317;49.048;8.468;2024-03-22T05:39:51;5.47;;;4.27;;
10537;SDS011;5317;49.048;8.468;2024-03-22T05:42:18;5.23;;;4.73;;
10537;SDS011;5317;49.048;8.468;2024-03-22T05:44:44;7.70;;;5.50;;
10537;SDS011;5317;49.048;8.468;2024-03-22T05:47:11;6.23;;;5.10;;
10537;SDS011;5317;49.048;8.468;2024-03-22T05:49:38;5.70;;;5.20;;
10537;SDS011;5317;49.048;8.468;2024-03-22T05:52:05;7.53;;;5.30;;
10537;SDS011;5317;49.048;8.468;2024-03-22T05:54:32;5.37;;;4.87;;
10537;SDS011;5317;49.048;8.468;2024-03-22T05:56:58;7.03;;;5.53;;
10537;SDS011;5317;49.048;8.468;2024-03-22T05:59:25;6.70;;;6.00;;
10537;SDS011;5317;49.048;8.468;2024-03-22T06:01:53;6.53;;;5.90;;
10537;SDS011;5317;49.048;8.468;2024-03-22T06:04:19;6.57;;;5.37;;
10537;SDS011;5317;49.048;8.468;2024-03-22T06:06:47;6.67;;;5.67;;
10537;SDS011;5317;49.048;8.468;2024-03-22T06:09:17;6.23;;;5.07;;
10537;SDS011;5317;49.048;8.468;2024-03-22T06:11:49;5.63;;;5.07;;
10537;SDS011;5317;49.048;8.468;2024-03-22T06:14:16;5.87;;;5.30;;
10537;SDS011;5317;49.048;8.468;2024-03-22T06:16:42;8.30;;;5.47;;
10537;SDS011;5317;49.048;8.468;2024-03-22T06:19:09;6.27;;;5.43;;
10537;SDS011;5317;49.048;8.468;2024-03-22T06:21:35;7.33;;;5.53;;
10537;SDS011;5317;49.048;8.468;2024-03-22T06:24:03;7.07;;;5.80;;
10537;SDS011;5317;49.048;8.468;2024-03-22T06:26:29;7.20;;;5.30;;
10537;SDS011;5317;49.048;8.468;2024-03-22T06:28:56;6.90;;;5.90;;
10537;SDS011;5317;49.048;8.468;2024-03-22T06:31:22;6.80;;;6.07;;
10537;SDS011;5317;49.048;8.468;2024-03-22T06:33:49;7.17;;;5.63;;
10537;SDS011;5317;49.048;8.468;2024-03-22T06:36:15;7.37;;;5.93;;
10537;SDS011;5317;49.048;8.468;2024-03-22T06:38:43;8.67;;;5.67;;
10537;SDS011;5317;49.048;8.468;2024-03-22T06:41:10;7.63;;;5.60;;
10537;SDS011;5317;49.048;8.468;2024-03-22T06:43:37;7.07;;;5.70;;
10537;SDS011;5317;49.048;8.468;2024-03-22T06:46:03;6.63;;;5.50;;
10537;SDS011;5317;49.048;8.468;2024-03-22T06:48:30;7.03;;;5.07;;
10537;SDS011;5317;49.048;8.468;2024-03-22T06:50:56;7.43;;;5.70;;
10537;SDS011;5317;49.048;8.468;2024-03-22T06:53:22;7.83;;;5.67;;
10537;SDS011;5317;49.048;8.468;2024-03-22T06:55:48;5.73;;;5.17;;
10537;SDS011;5317;49.048;8.468;2024-03-22T06:58:16;7.43;;;6.20;;
10537;SDS011;5317;49.048;8.468;2024-03-22T07:00:42;7.17;;;5.67;;
10537;SDS011;5317;49.048;8.468;2024-03-22T07:03:09;8.43;;;5.43;;
10537;SDS011;5317;49.048;8.468;2024-03-22T07:05:35;11.50;;;6.67;;
10537;SDS011;5317;49.048;8.468;2024-03-22T07:08:02;8.40;;;5.47;;
10537;SDS011;5317;49.048;8.468;2024-03-22T07:10:28;7.17;;;4.97;;
10537;SDS011;5317;49.048;8.468;2024-03-22T07:12:55;8.10;;;5.87;;
10537;SDS011;5317;49.048;8.468;2024-03-22T07:15:23;6.20;;;5.60;;
10537;SDS011;5317;49.048;8.468;2024-03-22T07:17:50;9.20;;;5.83;;
10537;SDS011;5317;49.048;8.468;2024-03-22T07:20:16;6.40;;;5.40;;
10537;SDS011;5317;49.048;8.468;2024-03-22T07:22:43;5.70;;;4.93;;
10537;SDS011;5317;49.048;8.468;2024-03-22T07:25:09;8.87;;;5.20;;
10537;SDS011;5317;49.048;8.468;2024-03-22T07:27:37;5.43;;;4.73;;
10537;SDS011;5317;49.048;8.468;2024-03-22T07:30:03;5.40;;;4.90;;
10537;SDS011;5317;49.048;8.468;2024-03-22T07:32:32;6.60;;;4.67;;
10537;SDS011;5317;49.048;8.468;2024-03-22T07:34:58;9.13;;;5.23;;
10537;SDS011;5317;49.048;8.468;2024-03-22T07:37:25;7.63;;;5.30;;
10537;SDS011;5317;49.048;8.468;2024-03-22T07:39:51;6.00;;;5.17;;
10537;SDS011;5317;49.048;8.468;2024-03-22T07:42:18;8.67;;;5.83;;
10537;SDS011;5317;49.048;8.468;2024-03-22T07:44:43;6.23;;;4.73;;
10537;SDS011;5317;49.048;8.468;2024-03-22T07:47:10;5.83;;;5.20;;
10537;SDS011;5317;49.048;8.468;2024-03-22T07:49:37;5.63;;;4.80;;
10537;SDS011;5317;49.048;8.468;2024-03-22T07:52:04;5.70;;;5.20;;
10537;SDS011;5317;49.048;8.468;2024-03-22T07:54:31;5.67;;;5.13;;
10537;SDS011;5317;49.048;8.468;2024-03-22T07:56:57;5.23;;;4.73;;
10537;SDS011;5317;49.048;8.468;2024-03-22T07:59:23;6.03;;;5.10;;
10537;SDS011;5317;49.048;8.468;2024-03-22T08:01:51;6.03;;;5.37;;
10537;SDS011;5317;49.048;8.468;2024-03-22T08:04:16;5.90;;;5.30;;
10537;SDS011;5317;49.048;8.468;2024-03-22T08:06:45;6.07;;;5.07;;
10537;SDS011;5317;49.048;8.468;2024-03-22T08:09:11;7.37;;;5.57;;
10537;SDS011;5317;49.048;8.468;2024-03-22T08:11:38;5.83;;;5.17;;
10537;SDS011;5317;49.048;8.468;2024-03-22T08:14:04;5.73;;;5.13;;
10537;SDS011;5317;49.048;8.468;2024-03-22T08:16:30;8.10;;;5.47;;
10537;SDS011;5317;49.048;8.468;2024-03-22T08:18:56;7.70;;;5.17;;
10537;SDS011;5317;49.048;8.468;2024-03-22T08:21:23;7.23;;;5.33;;
10537;SDS011;5317;49.048;8.468;2024-03-22T08:23:51;7.10;;;4.90;;
10537;SDS011;5317;49.048;8.468;2024-03-22T08:26:18;6.17;;;5.53;;
10537;SDS011;5317;49.048;8.468;2024-03-22T08:28:44;5.77;;;4.83;;
10537;SDS011;5317;49.048;8.468;2024-03-22T08:31:11;7.53;;;5.17;;
10537;SDS011;5317;49.048;8.468;2024-03-22T08:33:37;6.87;;;5.00;;
10537;SDS011;5317;49.048;8.468;2024-03-22T08:36:04;6.47;;;5.00;;
10537;SDS011;5317;49.048;8.468;2024-03-22T08:38:30;6.40;;;4.90;;
10537;SDS011;5317;49.048;8.468;2024-03-22T08:40:59;8.03;;;5.07;;
10537;SDS011;5317;49.048;8.468;2024-03-22T08:43:25;5.50;;;5.00;;
10537;SDS011;5317;49.048;8.468;2024-03-22T08:45:54;5.77;;;5.00;;
10537;SDS011;5317;49.048;8.468;2024-03-22T08:48:20;6.03;;;5.43;;
10537;SDS011;5317;49.048;8.468;2024-03-22T08:50:49;7.43;;;5.50;;
10537;SDS011;5317;49.048;8.468;2024-03-22T08:53:15;6.57;;;5.87;;
10537;SDS011;5317;49.048;8.468;2024-03-22T08:55:46;7.03;;;5.53;;
10537;SDS011;5317;49.048;8.468;2024-03-22T08:58:14;5.80;;;5.00;;
10537;SDS011;5317;49.048;8.468;2024-03-22T09:00:43;5.83;;;4.67;;
10537;SDS011;5317;49.048;8.468;2024-03-22T09:03:09;5.67;;;5.13;;
10537;SDS011;5317;49.048;8.468;2024-03-22T09:05:35;6.80;;;5.67;;
10537;SDS011;5317;49.048;8.468;2024-03-22T09:08:02;6.70;;;5.40;;
10537;SDS011;5317;49.048;8.468;2024-03-22T09:10:30;10.37;;;5.40;;
10537;SDS011;5317;49.048;8.468;2024-03-22T09:12:56;8.27;;;5.90;;
10537;SDS011;5317;49.048;8.468;2024-03-22T09:15:24;6.80;;;5.13;;
10537;SDS011;5317;49.048;8.468;2024-03-22T09:17:51;6.10;;;5.50;;
10537;SDS011;5317;49.048;8.468;2024-03-22T09:20:18;8.90;;;5.90;;
10537;SDS011;5317;49.048;8.468;2024-03-22T09:22:44;8.10;;;6.13;;
10537;SDS011;5317;49.048;8.468;2024-03-22T09:25:11;7.73;;;6.73;;
10537;SDS011;5317;49.048;8.468;2024-03-22T09:27:37;6.73;;;5.30;;
10537;SDS011;5317;49.048;8.468;2024-03-22T09:30:04;7.30;;;6.27;;
10537;SDS011;5317;49.048;8.468;2024-03-22T09:32:32;6.40;;;5.53;;
10537;SDS011;5317;49.048;8.468;2024-03-22T09:34:59;7.40;;;5.80;;
10537;SDS011;5317;49.048;8.468;2024-03-22T09:37:25;7.20;;;5.50;;
10537;SDS011;5317;49.048;8.468;2024-03-22T09:39:52;6.50;;;5.50;;
10537;SDS011;5317;49.048;8.468;2024-03-22T09:42:17;6.03;;;5.17;;
10537;SDS011;5317;49.048;8.468;2024-03-22T09:44:46;8.10;;;5.40;;
10537;SDS011;5317;49.048;8.468;2024-03-22T09:47:14;6.80;;;5.20;;
10537;SDS011;5317;49.048;8.468;2024-03-22T09:49:43;6.67;;;5.47;;
10537;SDS011;5317;49.048;8.468;2024-03-22T09:52:11;7.77;;;5.37;;
10537;SDS011;5317;49.048;8.468;2024-03-22T09:54:40;8.23;;;5.37;;
10537;SDS011;5317;49.048;8.468;2024-03-22T09:57:07;6.00;;;5.40;;
10537;SDS011;5317;49.048;8.468;2024-03-22T09:59:37;5.67;;;5.10;;
10537;SDS011;5317;49.048;8.468;2024-03-22T10:02:04;7.60;;;5.47;;
10537;SDS011;5317;49.048;8.468;2024-03-22T10:04:33;7.17;;;5.33;;
10537;SDS011;5317;49.048;8.468;2024-03-22T10:07:02;6.27;;;5.20;;
10537;SDS011;5317;49.048;8.468;2024-03-22T10:09:30;7.33;;;5.50;;
10537;SDS011;5317;49.048;8.468;2024-03-22T10:11:56;5.63;;;4.93;;
10537;SDS011;5317;49.048;8.468;2024-03-22T10:14:23;6.57;;;5.00;;
10537;SDS011;5317;49.048;8.468;2024-03-22T10:16:50;6.70;;;4.70;;
10537;SDS011;5317;49.048;8.468;2024-03-22T10:19:19;6.53;;;4.80;;
10537;SDS011;5317;49.048;8.468;2024-03-22T10:21:45;5.37;;;4.87;;
10537;SDS011;5317;49.048;8.468;2024-03-22T10:26:41;5.70;;;4.50;;
10537;SDS011;5317;49.048;8.468;2024-03-22T10:29:10;6.93;;;5.47;;
10537;SDS011;5317;49.048;8.468;2024-03-22T10:31:37;5.97;;;5.10;;
10537;SDS011;5317;49.048;8.468;2024-03-22T10:34:04;10.17;;;5.90;;
10537;SDS011;5317;49.048;8.468;2024-03-22T10:36:31;6.17;;;5.27;;
10537;SDS011;5317;49.048;8.468;2024-03-22T10:38:59;8.23;;;5.03;;
10537;SDS011;5317;49.048;8.468;2024-03-22T10:41:29;7.37;;;4.90;;
10537;SDS011;5317;49.048;8.468;2024-03-22T10:43:56;7.57;;;5.40;;
10537;SDS011;5317;49.048;8.468;2024-03-22T10:46:23;7.17;;;5.30;;
10537;SDS011;5317;49.048;8.468;2024-03-22T10:48:57;6.37;;;5.73;;
10537;SDS011;5317;49.048;8.468;2024-03-22T10:51:23;6.70;;;5.37;;
10537;SDS011;5317;49.048;8.468;2024-03-22T10:53:52;8.17;;;5.90;;
10537;SDS011;5317;49.048;8.468;2024-03-22T10:56:19;7.83;;;5.20;;
10537;SDS011;5317;49.048;8.468;2024-03-22T10:58:50;7.23;;;4.80;;
10537;SDS011;5317;49.048;8.468;2024-03-22T11:01:24;6.53;;;4.93;;
10537;SDS011;5317;49.048;8.468;2024-03-22T11:04:02;6.80;;;5.13;;
10537;SDS011;5317;49.048;8.468;2024-03-22T11:06:28;7.60;;;5.33;;
10537;SDS011;5317;49.048;8.468;2024-03-22T11:08:58;6.03;;;5.43;;
10537;SDS011;5317;49.048;8.468;2024-03-22T11:11:25;5.57;;;4.73;;
10537;SDS011;5317;49.048;8.468;2024-03-22T11:13:57;8.53;;;5.13;;
10537;SDS011;5317;49.048;8.468;2024-03-22T11:16:23;6.07;;;4.63;;
10537;SDS011;5317;49.048;8.468;2024-03-22T11:18:51;4.73;;;4.27;;
10537;SDS011;5317;49.048;8.468;2024-03-22T11:21:17;7.70;;;5.53;;
10537;SDS011;5317;49.048;8.468;2024-03-22T11:23:47;6.73;;;4.90;;
10537;SDS011;5317;49.048;8.468;2024-03-22T11:26:14;6.77;;;5.10;;
10537;SDS011;5317;49.048;8.468;2024-03-22T11:28:41;5.47;;;3.87;;
10537;SDS011;5317;49.048;8.468;2024-03-22T11:31:09;5.30;;;4.60;;
10537;SDS011;5317;49.048;8.468;2024-03-22T11:33:36;5.43;;;4.40;;
10537;SDS011;5317;49.048;8.468;2024-03-22T11:36:02;6.97;;;4.70;;
10537;SDS011;5317;49.048;8.468;2024-03-22T11:38:30;5.77;;;4.03;;
10537;SDS011;5317;49.048;8.468;2024-03-22T11:40:57;4.80;;;4.20;;
10537;SDS011;5317;49.048;8.468;2024-03-22T11:43:26;6.20;;;4.50;;
10537;SDS011;5317;49.048;8.468;2024-03-22T11:45:53;5.13;;;4.13;;
10537;SDS011;5317;49.048;8.468;2024-03-22T11:48:22;6.23;;;4.20;;
10537;SDS011;5317;49.048;8.468;2024-03-22T11:50:48;4.33;;;3.80;;
10537;SDS011;5317;49.048;8.468;2024-03-22T11:53:16;6.30;;;4.00;;
10537;SDS011;5317;49.048;8.468;2024-03-22T11:55:42;6.23;;;4.30;;
10537;SDS011;5317;49.048;8.468;2024-03-22T11:58:09;6.67;;;4.07;;
10537;SDS011;5317;49.048;8.468;2024-03-22T12:00:35;4.67;;;4.03;;
10537;SDS011;5317;49.048;8.468;2024-03-22T12:03:03;4.30;;;3.90;;
10537;SDS011;5317;49.048;8.468;2024-03-22T12:05:32;4.73;;;3.80;;
10537;SDS011;5317;49.048;8.468;2024-03-22T12:07:59;7.23;;;4.77;;
10537;SDS011;5317;49.048;8.468;2024-03-22T12:10:25;6.43;;;3.90;;
10537;SDS011;5317;49.048;8.468;2024-03-22T12:12:52;6.20;;;4.10;;
10537;SDS011;5317;49.048;8.468;2024-03-22T12:15:19;7.07;;;4.30;;
10537;SDS011;5317;49.048;8.468;2024-03-22T12:17:46;4.77;;;3.77;;
10537;SDS011;5317;49.048;8.468;2024-03-22T12:20:12;5.87;;;4.03;;
10537;SDS011;5317;49.048;8.468;2024-03-22T12:22:41;4.93;;;4.17;;
10537;SDS011;5317;49.048;8.468;2024-03-22T12:25:07;6.87;;;4.00;;
10537;SDS011;5317;49.048;8.468;2024-03-22T12:27:36;5.63;;;4.10;;
10537;SDS011;5317;49.048;8.468;2024-03-22T12:30:02;5.63;;;3.97;;
10537;SDS011;5317;49.048;8.468;2024-03-22T12:32:31;4.73;;;4.17;;
10537;SDS011;5317;49.048;8.468;2024-03-22T12:34:57;4.80;;;4.30;;
10537;SDS011;5317;49.048;8.468;2024-03-22T12:37:24;4.80;;;3.87;;
10537;SDS011;5317;49.048;8.468;2024-03-22T12:39:52;6.70;;;4.57;;
10537;SDS011;5317;49.048;8.468;2024-03-22T12:42:19;4.63;;;3.90;;
10537;SDS011;5317;49.048;8.468;2024-03-22T12:44:45;4.93;;;3.87;;
10537;SDS011;5317;49.048;8.468;2024-03-22T12:47:12;4.50;;;3.70;;
10537;SDS011;5317;49.048;8.468;2024-03-22T12:49:38;6.10;;;3.87;;
10537;SDS011;5317;49.048;8.468;2024-03-22T12:52:05;5.17;;;3.47;;
10537;SDS011;5317;49.048;8.468;2024-03-22T12:54:31;4.20;;;3.00;;
10537;SDS011;5317;49.048;8.468;2024-03-22T12:57:00;3.00;;;2.70;;
10537;SDS011;5317;49.048;8.468;2024-03-22T12:59:26;4.10;;;2.73;;
10537;SDS011;5317;49.048;8.468;2024-03-22T13:01:52;4.67;;;3.20;;
10537;SDS011;5317;49.048;8.468;2024-03-22T13:04:18;4.03;;;2.63;;
10537;SDS011;5317;49.048;8.468;2024-03-22T13:06:45;2.60;;;2.40;;
10537;SDS011;5317;49.048;8.468;2024-03-22T13:09:11;3.40;;;3.10;;
10537;SDS011;5317;49.048;8.468;2024-03-22T13:11:38;4.17;;;3.10;;
10537;SDS011;5317;49.048;8.468;2024-03-22T13:14:07;3.97;;;2.60;;
10537;SDS011;5317;49.048;8.468;2024-03-22T13:16:34;3.73;;;2.70;;
10537;SDS011;5317;49.048;8.468;2024-03-22T13:19:00;3.23;;;2.90;;
10537;SDS011;5317;49.048;8.468;2024-03-22T13:21:27;3.73;;;2.70;;
10537;SDS011;5317;49.048;8.468;2024-03-22T13:23:53;4.00;;;2.70;;
10537;SDS011;5317;49.048;8.468;2024-03-22T13:26:20;3.30;;;2.60;;
10537;SDS011;5317;49.048;8.468;2024-03-22T13:28:45;4.17;;;2.83;;
10537;SDS011;5317;49.048;8.468;2024-03-22T13:31:14;3.33;;;2.57;;
10537;SDS011;5317;49.048;8.468;2024-03-22T13:33:40;4.17;;;2.53;;
10537;SDS011;5317;49.048;8.468;2024-03-22T13:36:07;5.07;;;3.10;;
10537;SDS011;5317;49.048;8.468;2024-03-22T13:38:36;2.73;;;2.40;;
10537;SDS011;5317;49.048;8.468;2024-03-22T13:41:03;4.03;;;2.60;;
10537;SDS011;5317;49.048;8.468;2024-03-22T13:43:31;2.83;;;2.53;;
10537;SDS011;5317;49.048;8.468;2024-03-22T13:45:58;4.13;;;2.40;;
10537;SDS011;5317;49.048;8.468;2024-03-22T13:48:27;3.10;;;2.43;;
10537;SDS011;5317;49.048;8.468;2024-03-22T13:50:54;2.73;;;2.40;;
10537;SDS011;5317;49.048;8.468;2024-03-22T13:53:20;3.63;;;2.60;;
10537;SDS011;5317;49.048;8.468;2024-03-22T13:55:48;4.37;;;2.67;;
10537;SDS011;5317;49.048;8.468;2024-03-22T13:58:14;2.87;;;2.33;;
10537;SDS011;5317;49.048;8.468;2024-03-22T14:00:41;4.20;;;3.00;;
10537;SDS011;5317;49.048;8.468;2024-03-22T14:03:07;4.83;;;3.23;;
10537;SDS011;5317;49.048;8.468;2024-03-22T14:05:35;3.27;;;2.57;;
10537;SDS011;5317;49.048;8.468;2024-03-22T14:08:01;3.73;;;2.63;;
10537;SDS011;5317;49.048;8.468;2024-03-22T14:10:28;5.83;;;3.40;;
10537;SDS011;5317;49.048;8.468;2024-03-22T14:12:56;4.13;;;3.03;;
10537;SDS011;5317;49.048;8.468;2024-03-22T14:15:23;4.33;;;3.10;;
10537;SDS011;5317;49.048;8.468;2024-03-22T14:17:50;3.60;;;2.80;;
10537;SDS011;5317;49.048;8.468;2024-03-22T14:20:17;6.23;;;3.40;;
10537;SDS011;5317;49.048;8.468;2024-03-22T14:22:45;5.67;;;3.10;;
10537;SDS011;5317;49.048;8.468;2024-03-22T14:25:12;3.13;;;2.83;;
10537;SDS011;5317;49.048;8.468;2024-03-22T14:27:38;4.03;;;3.00;;
10537;SDS011;5317;49.048;8.468;2024-03-22T14:30:07;3.40;;;2.87;;
10537;SDS011;5317;49.048;8.468;2024-03-22T14:32:35;4.60;;;3.20;;
10537;SDS011;5317;49.048;8.468;2024-03-22T14:35:02;5.20;;;3.10;;
10537;SDS011;5317;49.048;8.468;2024-03-22T14:37:28;5.50;;;3.10;;
10537;SDS011;5317;49.048;8.468;2024-03-22T14:39:56;2.93;;;2.70;;
10537;SDS011;5317;49.048;8.468;2024-03-22T14:42:22;4.00;;;3.03;;
10537;SDS011;5317;49.048;8.468;2024-03-22T14:44:49;3.70;;;2.80;;
10537;SDS011;5317;49.048;8.468;2024-03-22T14:47:15;3.73;;;2.70;;
10537;SDS011;5317;49.048;8.468;2024-03-22T14:49:42;3.83;;;3.23;;
10537;SDS011;5317;49.048;8.468;2024-03-22T14:52:08;3.50;;;2.80;;
10537;SDS011;5317;49.048;8.468;2024-03-22T14:54:35;3.17;;;2.87;;
10537;SDS011;5317;49.048;8.468;2024-03-22T14:57:02;5.37;;;3.50;;
10537;SDS011;5317;49.048;8.468;2024-03-22T14:59:29;4.00;;;3.00;;
10537;SDS011;5317;49.048;8.468;2024-03-22T15:01:55;7.47;;;3.20;;